EDAH

Heringsdorf Airport

Heringsdorf, Germany
METAR EDAH 191720Z 05007KT CAVOK 21/15 Q1016
Observed Flight Rules
Aug-19 @ 17:20 UTC (23 hours ago) Visual Flight Rules
Wind Visibility Clouds
50° at 7 knots 10,000+ meters
  • Clear skies
Temperatures Readings
Current 21°C / 70°F
Dewpoint 15°C / 59°F
Humidity 69%
Altimeter 30" Hg
Pressure 1016 hPa
Elevation 28
METAR EDAH 191720Z 05007KT CAVOK 21/15 Q1016
Observed Flight Rules
Aug-19 @ 17:20 UTC
(23 hours ago)
VFR
Wind Visibility
50° at 7 knots 10,000+ meters
Clouds
  • Clear skies
Temperature Dewpoint
21°C / 70°F 15°C / 59°F
Humidity Altimeter Pressure
69% 30" Hg 1016 hPa